Time;durP1;ratioP1;P1;durP2;ratioP2;P2;SDS_P1;SDS_P2;PMS_P1;PMS_P2;Temp;Humidity;BMP_temperature;BMP_pressure;BME280_temperature;BME280_humidity;BME280_pressure;Samples;Min_cycle;Max_cycle;Signal;HPM_P1;HPM_P2
2021/06/19 00:00:14;;;;;;;12.27;5.10;;;23.90;99.90;;;;;;4969846;28;20799;-65
2021/06/19 00:02:41;;;;;;;9.03;4.80;;;23.90;99.90;;;;;;4970302;28;20220;-65
2021/06/19 00:05:10;;;;;;;13.03;4.70;;;23.90;99.90;;;;;;4969919;28;20227;-65
2021/06/19 00:07:37;;;;;;;8.57;4.60;;;23.80;99.90;;;;;;4970009;28;20601;-65
2021/06/19 00:10:05;;;;;;;10.50;4.87;;;23.70;99.90;;;;;;4970017;28;20218;-64
2021/06/19 00:12:34;;;;;;;9.67;5.00;;;23.70;99.90;;;;;;4970145;28;20255;-65
2021/06/19 00:15:02;;;;;;;7.53;4.33;;;23.70;99.90;;;;;;4969997;28;20208;-65
2021/06/19 00:17:29;;;;;;;12.80;4.97;;;23.60;99.90;;;;;;4970127;28;20700;-64
2021/06/19 00:19:56;;;;;;;10.67;4.27;;;23.60;99.90;;;;;;4969593;28;20637;-63
2021/06/19 00:22:22;;;;;;;12.93;5.10;;;23.50;99.90;;;;;;4969804;28;20217;-64
2021/06/19 00:24:49;;;;;;;8.10;4.73;;;23.40;99.90;;;;;;4970143;28;20224;-64
2021/06/19 00:27:16;;;;;;;7.30;4.20;;;23.30;99.90;;;;;;4969732;28;20228;-64
2021/06/19 00:29:42;;;;;;;8.70;3.87;;;23.30;99.90;;;;;;4969903;28;20216;-64
2021/06/19 00:32:10;;;;;;;6.53;3.80;;;23.20;99.90;;;;;;4969552;28;20215;-64
2021/06/19 00:34:37;;;;;;;10.03;3.73;;;23.10;99.90;;;;;;4969647;28;20565;-64
2021/06/19 00:37:04;;;;;;;8.60;3.90;;;23.10;99.90;;;;;;4969768;28;20604;-64
2021/06/19 00:39:31;;;;;;;6.17;3.10;;;23.00;99.90;;;;;;4969868;28;20212;-64
2021/06/19 00:41:57;;;;;;;9.10;3.30;;;23.10;99.90;;;;;;4969460;28;20208;-65
2021/06/19 00:44:24;;;;;;;7.50;3.60;;;23.00;99.90;;;;;;4969799;28;20224;-65
2021/06/19 00:46:51;;;;;;;6.40;3.23;;;23.00;99.90;;;;;;4969860;28;20251;-64
2021/06/19 00:49:20;;;;;;;6.77;2.90;;;23.00;99.90;;;;;;4973069;28;20304;-65
2021/06/19 00:51:46;;;;;;;7.27;3.00;;;22.90;99.90;;;;;;4972818;28;20212;-65
2021/06/19 00:54:13;;;;;;;10.77;2.67;;;22.80;99.90;;;;;;4972946;28;20219;-64
2021/06/19 00:56:40;;;;;;;8.80;2.93;;;22.80;99.90;;;;;;4972709;28;20204;-65
2021/06/19 00:59:09;;;;;;;6.80;3.00;;;22.80;99.90;;;;;;4972805;28;20213;-64
2021/06/19 01:01:36;;;;;;;5.53;2.60;;;22.70;99.90;;;;;;4972391;28;20212;-65
2021/06/19 01:04:04;;;;;;;5.37;2.80;;;22.60;99.90;;;;;;4972859;28;20208;-64
2021/06/19 01:06:34;;;;;;;13.17;3.17;;;22.60;99.90;;;;;;4972723;28;20216;-64
2021/06/19 01:09:01;;;;;;;6.20;3.00;;;22.60;99.90;;;;;;4972569;28;20231;-65
2021/06/19 01:11:30;;;;;;;4.67;2.90;;;22.50;99.90;;;;;;4972438;28;20582;-64
2021/06/19 01:13:58;;;;;;;5.47;2.70;;;22.50;99.90;;;;;;4972350;28;20774;-64
2021/06/19 01:16:25;;;;;;;4.30;2.80;;;22.40;99.90;;;;;;4972720;28;20223;-65
2021/06/19 01:18:52;;;;;;;4.43;2.73;;;22.30;99.90;;;;;;4972424;28;20592;-64
2021/06/19 01:21:21;;;;;;;4.70;2.97;;;22.30;99.90;;;;;;4972389;28;20231;-65
2021/06/19 01:23:51;;;;;;;7.20;3.27;;;22.30;99.90;;;;;;4972616;28;20209;-64
2021/06/19 01:26:20;;;;;;;6.93;2.70;;;22.20;99.90;;;;;;4972521;28;20209;-65
2021/06/19 01:28:49;;;;;;;4.83;2.73;;;22.20;99.90;;;;;;4971916;28;20236;-64
2021/06/19 01:31:17;;;;;;;6.60;2.90;;;22.10;99.90;;;;;;4972340;28;20215;-65
2021/06/19 01:33:45;;;;;;;7.43;3.10;;;22.00;99.90;;;;;;4972296;28;20208;-65
2021/06/19 01:36:13;;;;;;;3.97;2.70;;;22.00;99.90;;;;;;4972231;28;20215;-65
2021/06/19 01:38:40;;;;;;;6.50;2.40;;;21.90;99.90;;;;;;4972131;28;20235;-65
2021/06/19 01:41:13;;;;;;;6.10;2.70;;;21.90;99.90;;;;;;4971848;28;20212;-65
2021/06/19 01:43:41;;;;;;;4.63;2.60;;;21.90;99.90;;;;;;4972371;28;20212;-65
2021/06/19 01:46:09;;;;;;;4.03;2.43;;;21.80;99.90;;;;;;4972124;28;20591;-64
2021/06/19 01:48:36;;;;;;;4.80;2.60;;;21.80;99.90;;;;;;4972066;28;20229;-65
2021/06/19 01:51:02;;;;;;;4.93;2.83;;;21.70;99.90;;;;;;4971892;28;20595;-64
2021/06/19 01:53:29;;;;;;;5.60;2.57;;;21.70;99.90;;;;;;4972020;28;20212;-65
2021/06/19 01:55:56;;;;;;;8.50;2.70;;;21.70;99.90;;;;;;4971877;28;20579;-65
2021/06/19 01:58:22;;;;;;;2.97;2.40;;;21.70;99.90;;;;;;4972030;28;20228;-64
2021/06/19 02:00:51;;;;;;;5.50;2.77;;;21.60;99.90;;;;;;4971936;28;20216;-65
2021/06/19 02:03:17;;;;;;;4.83;2.47;;;21.60;99.90;;;;;;4971898;28;20212;-65
2021/06/19 02:05:44;;;;;;;3.93;2.47;;;21.60;99.90;;;;;;4971638;28;20238;-65
2021/06/19 02:08:11;;;;;;;4.40;2.40;;;21.50;99.90;;;;;;4971405;28;20231;-64
2021/06/19 02:10:39;;;;;;;7.23;2.60;;;21.50;99.90;;;;;;4971743;28;20219;-65
2021/06/19 02:13:08;;;;;;;5.47;2.60;;;21.50;99.90;;;;;;4971724;28;20590;-65
2021/06/19 02:15:36;;;;;;;3.13;2.37;;;21.40;99.90;;;;;;4971545;28;20208;-65
2021/06/19 02:18:04;;;;;;;5.43;2.80;;;21.40;99.90;;;;;;4971419;28;20220;-65
2021/06/19 02:20:31;;;;;;;7.83;2.73;;;21.40;99.90;;;;;;4971871;28;20212;-64
2021/06/19 02:22:58;;;;;;;5.27;2.60;;;21.30;99.90;;;;;;4971581;28;20213;-65
2021/06/19 02:25:27;;;;;;;4.27;2.87;;;21.30;99.90;;;;;;4971874;28;20212;-64
2021/06/19 02:27:56;;;;;;;4.33;2.73;;;21.20;99.90;;;;;;4971410;28;20605;-64
2021/06/19 02:30:25;;;;;;;6.23;3.33;;;21.20;99.90;;;;;;4971478;28;20308;-65
2021/06/19 02:32:53;;;;;;;6.63;3.00;;;21.20;99.90;;;;;;4971896;28;20208;-64
2021/06/19 02:35:22;;;;;;;4.17;2.30;;;21.10;99.90;;;;;;4972857;28;20208;-64
2021/06/19 02:37:49;;;;;;;6.97;2.93;;;21.00;99.90;;;;;;4974355;28;20728;-64
2021/06/19 02:40:16;;;;;;;5.03;2.17;;;21.10;99.90;;;;;;4974060;28;20215;-64
2021/06/19 02:42:43;;;;;;;5.87;2.60;;;21.10;99.90;;;;;;4973109;28;20586;-63
2021/06/19 02:45:12;;;;;;;4.13;2.10;;;21.00;99.90;;;;;;4973729;28;20208;-64
2021/06/19 02:47:39;;;;;;;5.03;2.60;;;21.00;99.90;;;;;;4973426;28;20232;-64
2021/06/19 02:50:08;;;;;;;3.23;2.07;;;21.10;99.90;;;;;;4974359;28;20219;-64
2021/06/19 02:52:40;;;;;;;3.53;2.20;;;21.00;99.90;;;;;;4972486;28;20205;-64
2021/06/19 02:55:08;;;;;;;3.17;2.30;;;21.00;99.90;;;;;;4971142;28;20212;-65
2021/06/19 02:57:35;;;;;;;5.73;2.37;;;21.00;99.90;;;;;;4971174;28;20228;-64
2021/06/19 03:00:01;;;;;;;2.90;2.00;;;21.00;99.90;;;;;;4970972;28;20619;-65
2021/06/19 03:02:28;;;;;;;3.97;2.40;;;21.00;99.90;;;;;;4971230;28;20208;-64
2021/06/19 03:04:55;;;;;;;3.07;1.90;;;21.00;99.90;;;;;;4970727;28;20204;-64
2021/06/19 03:07:21;;;;;;;12.97;2.63;;;21.00;99.90;;;;;;4970823;28;20232;-65
2021/06/19 03:09:49;;;;;;;4.27;2.00;;;21.00;99.90;;;;;;4970162;28;20219;-65
2021/06/19 03:12:16;;;;;;;3.40;2.10;;;21.00;99.90;;;;;;4970762;28;20705;-64
2021/06/19 03:14:43;;;;;;;4.50;2.00;;;21.00;99.90;;;;;;4970505;28;20747;-65
2021/06/19 03:17:09;;;;;;;3.97;2.30;;;21.00;99.90;;;;;;4971050;28;20594;-64
2021/06/19 03:19:37;;;;;;;3.70;1.80;;;21.00;99.90;;;;;;4970971;28;20570;-64
2021/06/19 03:22:04;;;;;;;2.37;1.97;;;20.90;99.90;;;;;;4970519;28;20204;-65
2021/06/19 03:24:30;;;;;;;3.93;2.10;;;20.90;99.90;;;;;;4971037;28;20614;-64
2021/06/19 03:26:58;;;;;;;3.57;2.13;;;20.80;99.90;;;;;;4970537;28;20219;-65
2021/06/19 03:29:25;;;;;;;4.33;2.10;;;20.70;99.90;;;;;;4970439;28;20232;-65
2021/06/19 03:31:52;;;;;;;3.33;2.30;;;20.80;99.90;;;;;;4970515;28;20212;-64
2021/06/19 03:34:18;;;;;;;2.40;2.07;;;20.70;99.90;;;;;;4970624;28;20238;-64
2021/06/19 03:36:45;;;;;;;2.70;1.90;;;20.80;99.90;;;;;;4970345;28;20208;-64
2021/06/19 03:39:15;;;;;;;4.13;1.97;;;20.70;99.90;;;;;;4970492;28;20200;-64
2021/06/19 03:41:42;;;;;;;6.43;2.00;;;20.70;99.90;;;;;;4970232;28;20212;-64
2021/06/19 03:44:11;;;;;;;4.10;2.00;;;20.70;99.90;;;;;;4970231;28;20208;-65
2021/06/19 03:46:39;;;;;;;4.30;1.93;;;20.60;99.90;;;;;;4970323;28;20204;-64
2021/06/19 03:49:05;;;;;;;5.77;1.90;;;20.60;99.90;;;;;;4970269;28;20239;-65
2021/06/19 03:51:32;;;;;;;4.07;1.77;;;20.60;99.90;;;;;;4970190;28;20216;-64
2021/06/19 03:53:59;;;;;;;2.13;1.70;;;20.70;99.90;;;;;;4970372;28;20213;-65
2021/06/19 03:56:25;;;;;;;9.23;2.10;;;20.70;99.90;;;;;;4970100;28;20208;-64
2021/06/19 03:58:52;;;;;;;2.50;1.70;;;20.70;99.90;;;;;;4970206;28;20224;-64
2021/06/19 04:01:20;;;;;;;1.63;1.53;;;20.70;99.90;;;;;;4969951;28;20665;-65
2021/06/19 04:03:47;;;;;;;2.93;1.90;;;20.70;99.90;;;;;;4970174;28;20606;-64
2021/06/19 04:06:13;;;;;;;4.10;1.70;;;20.70;99.90;;;;;;4970096;28;20577;-64
2021/06/19 04:08:40;;;;;;;3.83;1.53;;;20.80;99.90;;;;;;4969840;28;20711;-65
2021/06/19 04:11:07;;;;;;;4.10;1.60;;;20.80;99.90;;;;;;4969811;28;20220;-65
2021/06/19 04:13:33;;;;;;;1.70;1.37;;;20.80;99.90;;;;;;4970249;28;20220;-65
2021/06/19 04:16:00;;;;;;;5.43;1.70;;;20.80;99.90;;;;;;4970304;28;20204;-64
2021/06/19 04:18:28;;;;;;;1.93;1.43;;;20.80;99.90;;;;;;4969934;28;20237;-64
2021/06/19 04:20:55;;;;;;;4.57;1.60;;;20.70;99.90;;;;;;4969945;28;20205;-64
2021/06/19 04:23:22;;;;;;;1.57;1.40;;;20.80;99.90;;;;;;4972785;28;20204;-65
2021/06/19 04:25:48;;;;;;;4.23;1.93;;;20.80;99.90;;;;;;4973037;28;20220;-64
2021/06/19 04:28:15;;;;;;;2.10;1.50;;;20.80;99.90;;;;;;4973165;28;20232;-64
2021/06/19 04:30:42;;;;;;;3.20;1.60;;;20.90;99.90;;;;;;4973123;28;20212;-64
2021/06/19 04:33:09;;;;;;;2.57;1.60;;;20.90;99.90;;;;;;4973240;28;20220;-64
2021/06/19 04:35:37;;;;;;;1.90;1.70;;;20.80;99.90;;;;;;4973150;28;20219;-65
2021/06/19 04:38:03;;;;;;;4.40;1.47;;;20.80;99.90;;;;;;4973169;28;20231;-65
2021/06/19 04:40:35;;;;;;;4.27;1.53;;;20.90;99.90;;;;;;4973548;28;20205;-64
2021/06/19 04:43:04;;;;;;;3.17;1.47;;;20.90;99.90;;;;;;4973245;28;20703;-64
2021/06/19 04:45:30;;;;;;;4.20;1.67;;;21.00;99.90;;;;;;4973104;28;20216;-64
2021/06/19 04:47:58;;;;;;;3.83;1.33;;;21.00;99.90;;;;;;4972877;28;20232;-64
2021/06/19 04:50:25;;;;;;;2.40;1.10;;;21.10;99.90;;;;;;4972714;28;20213;-64
2021/06/19 04:52:53;;;;;;;2.30;1.30;;;21.10;99.90;;;;;;4972738;28;20582;-64
2021/06/19 04:55:20;;;;;;;2.60;1.23;;;21.10;99.90;;;;;;4973193;28;20208;-64
2021/06/19 04:57:51;;;;;;;2.10;1.30;;;21.10;99.90;;;;;;4972829;28;20229;-64
2021/06/19 05:00:19;;;;;;;1.73;1.33;;;21.10;99.90;;;;;;4972693;28;20305;-64
2021/06/19 05:02:46;;;;;;;3.67;1.37;;;21.10;99.90;;;;;;4972693;28;20215;-64
2021/06/19 05:05:13;;;;;;;1.40;1.10;;;21.10;99.90;;;;;;4972593;28;20219;-65
2021/06/19 05:07:39;;;;;;;3.33;1.40;;;21.00;99.90;;;;;;4972402;28;20709;-64
2021/06/19 05:10:09;;;;;;;2.30;1.40;;;21.10;99.90;;;;;;4972477;28;20232;-64
2021/06/19 05:12:39;;;;;;;1.70;1.60;;;21.10;99.90;;;;;;4972706;28;20220;-64
2021/06/19 05:15:07;;;;;;;2.30;1.47;;;21.00;99.90;;;;;;4972522;28;20246;-64
2021/06/19 05:17:33;;;;;;;2.77;1.63;;;21.00;99.90;;;;;;4972294;28;20232;-65
2021/06/19 05:20:00;;;;;;;2.17;1.50;;;21.00;99.90;;;;;;4972220;28;20209;-64
2021/06/19 05:22:27;;;;;;;3.00;1.70;;;21.00;99.90;;;;;;4972619;28;20215;-65
2021/06/19 05:24:54;;;;;;;2.40;1.50;;;21.10;99.90;;;;;;4972699;28;20208;-64
2021/06/19 05:27:22;;;;;;;2.10;1.60;;;21.10;99.90;;;;;;4972224;28;20225;-65
2021/06/19 05:29:49;;;;;;;7.13;1.70;;;21.10;99.90;;;;;;4972278;28;20235;-65
2021/06/19 05:32:15;;;;;;;2.23;1.33;;;21.10;99.90;;;;;;4972101;28;20214;-65
2021/06/19 05:34:42;;;;;;;4.10;1.50;;;21.10;99.90;;;;;;4972189;28;20213;-64
2021/06/19 05:37:09;;;;;;;6.93;1.77;;;21.10;99.90;;;;;;4972057;28;20228;-64
2021/06/19 05:39:36;;;;;;;1.60;1.30;;;21.20;99.90;;;;;;4972238;28;20201;-65
2021/06/19 05:42:03;;;;;;;3.10;1.50;;;21.30;99.90;;;;;;4972218;28;20217;-63
2021/06/19 05:44:31;;;;;;;2.70;1.30;;;21.30;99.90;;;;;;4972035;28;20213;-65
2021/06/19 05:46:58;;;;;;;2.27;1.77;;;21.30;99.90;;;;;;4971785;28;20205;-65
2021/06/19 05:49:24;;;;;;;4.47;1.67;;;21.30;99.90;;;;;;4971719;28;20705;-65
2021/06/19 05:51:51;;;;;;;5.30;1.93;;;21.40;99.90;;;;;;4971909;28;20212;-64
2021/06/19 05:54:18;;;;;;;2.13;1.30;;;21.40;99.90;;;;;;4971906;28;20677;-65
2021/06/19 05:56:44;;;;;;;3.43;1.40;;;21.50;99.90;;;;;;4971916;28;20209;-65
2021/06/19 05:59:11;;;;;;;1.80;1.27;;;21.60;99.90;;;;;;4971807;28;20201;-64
2021/06/19 06:01:39;;;;;;;2.43;1.60;;;21.60;99.90;;;;;;4971949;28;20584;-65
2021/06/19 06:04:06;;;;;;;2.57;1.33;;;21.60;99.90;;;;;;4972109;28;20208;-65
2021/06/19 06:06:32;;;;;;;2.43;1.30;;;21.70;99.90;;;;;;4972038;28;20208;-65
2021/06/19 06:08:59;;;;;;;1.40;1.20;;;21.70;99.90;;;;;;4971869;28;20376;-65
2021/06/19 06:11:26;;;;;;;4.47;1.60;;;21.70;99.90;;;;;;4971639;28;20208;-65
2021/06/19 06:13:53;;;;;;;3.03;1.50;;;21.60;99.90;;;;;;4971856;28;20589;-65
2021/06/19 06:16:20;;;;;;;3.10;1.73;;;21.60;99.90;;;;;;4969816;28;20212;-65
2021/06/19 06:18:48;;;;;;;2.07;1.40;;;21.70;99.90;;;;;;4970764;28;20307;-65
2021/06/19 06:21:14;;;;;;;3.23;1.60;;;21.80;99.90;;;;;;4970898;28;20215;-67
2021/06/19 06:23:41;;;;;;;3.07;1.80;;;21.80;99.90;;;;;;4971612;28;20219;-65
2021/06/19 06:26:08;;;;;;;3.10;1.40;;;21.90;99.90;;;;;;4971396;28;20216;-67
2021/06/19 06:28:38;;;;;;;2.37;1.40;;;22.00;99.90;;;;;;4971072;28;20240;-67
2021/06/19 06:31:04;;;;;;;5.00;1.30;;;22.00;99.90;;;;;;4971375;28;20236;-66
2021/06/19 06:33:31;;;;;;;2.80;1.33;;;22.20;99.90;;;;;;4971494;28;20620;-64
2021/06/19 06:35:59;;;;;;;3.47;1.50;;;22.30;99.90;;;;;;4971415;28;20219;-67
2021/06/19 06:38:26;;;;;;;2.73;1.10;;;22.40;99.90;;;;;;4971083;28;20228;-66
2021/06/19 06:40:52;;;;;;;3.47;1.30;;;22.60;99.90;;;;;;4971279;28;20213;-67
2021/06/19 06:43:19;;;;;;;4.03;1.43;;;22.70;99.90;;;;;;4970930;28;20216;-66
2021/06/19 06:45:46;;;;;;;3.53;1.23;;;22.70;99.90;;;;;;4970525;28;20209;-65
2021/06/19 06:48:13;;;;;;;2.47;1.47;;;22.70;99.90;;;;;;4971267;28;20239;-67
2021/06/19 06:50:40;;;;;;;3.67;1.30;;;22.60;99.90;;;;;;4971173;28;20629;-65
2021/06/19 06:53:09;;;;;;;4.13;1.60;;;22.60;99.90;;;;;;4971188;28;20216;-68
2021/06/19 06:55:35;;;;;;;1.53;1.20;;;22.60;99.90;;;;;;4971230;28;20226;-67
2021/06/19 06:58:02;;;;;;;4.73;1.50;;;22.70;99.90;;;;;;4971037;28;20239;-67
2021/06/19 07:00:29;;;;;;;2.93;1.40;;;22.80;99.90;;;;;;4971091;28;20204;-67
2021/06/19 07:02:56;;;;;;;2.53;1.43;;;23.00;99.90;;;;;;4970737;28;20208;-65
2021/06/19 07:05:23;;;;;;;2.83;1.30;;;23.00;99.90;;;;;;4971109;28;20646;-67
2021/06/19 07:07:49;;;;;;;4.53;1.30;;;23.10;99.90;;;;;;4970785;28;20228;-67
2021/06/19 07:10:17;;;;;;;3.50;1.50;;;23.10;99.90;;;;;;4970337;28;20255;-65
2021/06/19 07:12:45;;;;;;;1.93;1.23;;;23.30;99.90;;;;;;4970969;28;20212;-65
2021/06/19 07:15:14;;;;;;;3.47;1.43;;;23.40;99.90;;;;;;4970765;28;20208;-67
2021/06/19 07:17:42;;;;;;;4.47;1.33;;;23.50;99.90;;;;;;4970687;28;20315;-67
2021/06/19 07:20:10;;;;;;;3.27;1.40;;;23.50;99.90;;;;;;4970361;28;20673;-64
2021/06/19 07:22:37;;;;;;;5.17;1.40;;;23.70;99.90;;;;;;4970616;28;20592;-65
2021/06/19 07:25:07;;;;;;;6.37;1.43;;;23.70;99.90;;;;;;4970529;28;20212;-65
2021/06/19 07:27:35;;;;;;;2.20;1.43;;;23.80;99.90;;;;;;4970626;28;20240;-65
2021/06/19 07:30:02;;;;;;;2.37;1.40;;;23.80;99.90;;;;;;4970483;28;20232;-65
2021/06/19 07:32:28;;;;;;;1.90;1.30;;;23.90;99.90;;;;;;4970705;28;20204;-64
2021/06/19 07:34:55;;;;;;;3.47;1.20;;;24.00;99.90;;;;;;4970496;28;20227;-65
2021/06/19 07:37:22;;;;;;;3.77;1.50;;;24.20;99.90;;;;;;4970388;28;20232;-65
2021/06/19 07:39:52;;;;;;;3.07;1.37;;;24.40;99.90;;;;;;4970732;28;20213;-64
2021/06/19 07:42:19;;;;;;;4.07;1.20;;;24.50;99.90;;;;;;4969723;28;20298;-64
2021/06/19 07:44:47;;;;;;;3.63;1.20;;;24.40;99.90;;;;;;4970617;28;20216;-65
2021/06/19 07:47:14;;;;;;;1.77;1.20;;;24.30;99.90;;;;;;4970374;28;20229;-66
2021/06/19 07:49:40;;;;;;;3.40;1.33;;;24.10;99.90;;;;;;4970531;28;20248;-65
2021/06/19 07:52:07;;;;;;;2.13;1.30;;;24.20;99.90;;;;;;4969987;28;20218;-64
2021/06/19 07:54:37;;;;;;;3.53;1.60;;;24.40;99.90;;;;;;4970541;28;20213;-66
2021/06/19 07:57:04;;;;;;;2.90;1.13;;;24.60;99.90;;;;;;4972497;28;20259;-64
2021/06/19 07:59:31;;;;;;;1.00;0.90;;;24.80;99.90;;;;;;4973753;28;20616;-65
2021/06/19 08:01:59;;;;;;;2.60;1.03;;;24.90;99.90;;;;;;4973419;28;20213;-66
2021/06/19 08:04:26;;;;;;;1.23;0.80;;;25.00;99.90;;;;;;4973581;28;20212;-65
2021/06/19 08:06:53;;;;;;;1.83;1.00;;;25.10;99.90;;;;;;4973691;28;20212;-66
2021/06/19 08:09:19;;;;;;;3.13;1.20;;;25.10;99.90;;;;;;4973709;28;20224;-64
2021/06/19 08:11:46;;;;;;;2.53;1.13;;;25.20;99.90;;;;;;4973196;28;20204;-65
2021/06/19 08:14:15;;;;;;;1.17;0.90;;;25.40;99.90;;;;;;4973509;28;20216;-66
2021/06/19 08:16:45;;;;;;;3.37;1.10;;;25.40;99.90;;;;;;4973508;28;20239;-65
2021/06/19 08:19:13;;;;;;;4.20;1.30;;;25.40;99.90;;;;;;4973178;28;20208;-65
2021/06/19 08:21:40;;;;;;;4.67;1.23;;;25.40;99.90;;;;;;4973197;28;20216;-65
2021/06/19 08:24:08;;;;;;;4.73;1.23;;;25.40;99.90;;;;;;4973552;28;20212;-66
2021/06/19 08:26:36;;;;;;;1.27;1.00;;;25.50;99.90;;;;;;4973458;28;20213;-66
2021/06/19 08:29:03;;;;;;;2.03;1.30;;;25.40;99.90;;;;;;4972416;28;20744;-63
2021/06/19 08:31:32;;;;;;;2.20;1.20;;;25.50;99.90;;;;;;4951919;29;20220;-66
2021/06/19 08:33:59;;;;;;;2.13;1.87;;;25.60;99.90;;;;;;4955082;28;20212;-65
2021/06/19 08:36:27;;;;;;;1.50;1.10;;;25.70;99.90;;;;;;4972147;28;20212;-66
2021/06/19 08:38:54;;;;;;;1.77;1.00;;;25.80;99.90;;;;;;4972256;28;20236;-67
2021/06/19 08:41:21;;;;;;;1.40;1.27;;;25.70;99.90;;;;;;4972300;28;20209;-68
2021/06/19 08:43:48;;;;;;;2.23;1.17;;;25.70;99.90;;;;;;4972215;28;20205;-67
2021/06/19 08:46:19;;;;;;;2.73;1.30;;;25.70;99.90;;;;;;4971758;28;20219;-67
2021/06/19 08:48:48;;;;;;;2.03;1.17;;;25.80;99.90;;;;;;4972376;28;20731;-67
2021/06/19 08:51:15;;;;;;;1.67;0.93;;;25.70;99.90;;;;;;4971791;28;20713;-66
2021/06/19 08:53:43;;;;;;;1.00;0.90;;;25.70;99.90;;;;;;4972262;28;20597;-67
2021/06/19 08:56:10;;;;;;;3.33;1.20;;;25.70;99.90;;;;;;4971827;28;20212;-66
2021/06/19 08:58:37;;;;;;;2.90;1.17;;;25.70;99.90;;;;;;4971853;28;20239;-67
2021/06/19 09:01:03;;;;;;;3.63;1.10;;;25.80;99.90;;;;;;4972051;28;20200;-66
2021/06/19 09:03:30;;;;;;;3.20;1.27;;;25.80;99.90;;;;;;4970033;28;20213;-66
2021/06/19 09:06:19;;;;;;;1.40;1.00;;;25.90;99.90;;;;;;4971681;28;20208;-67
2021/06/19 09:09:08;;;;;;;2.10;0.87;;;25.80;99.90;;;;;;4971071;28;20278;-66
2021/06/19 09:11:37;;;;;;;0.70;0.70;;;25.90;99.90;;;;;;4972165;28;20201;-66
2021/06/19 09:14:05;;;;;;;2.60;0.93;;;26.10;99.90;;;;;;4971680;28;20213;-67
2021/06/19 09:16:32;;;;;;;0.97;0.80;;;26.10;99.90;;;;;;4971500;28;20223;-66
2021/06/19 09:18:59;;;;;;;3.70;0.87;;;26.30;99.90;;;;;;4971695;28;20251;-66
2021/06/19 09:21:31;;;;;;;0.60;0.60;;;26.40;99.90;;;;;;4971599;28;20205;-66
2021/06/19 09:23:58;;;;;;;3.23;1.10;;;26.20;99.90;;;;;;4971707;28;20216;-65
2021/06/19 09:26:28;;;;;;;3.57;1.00;;;26.40;99.90;;;;;;4971390;28;20739;-66
2021/06/19 09:29:02;;;;;;;2.60;1.17;;;26.50;99.90;;;;;;4971692;28;20240;-66
2021/06/19 09:31:48;;;;;;;1.67;0.80;;;26.60;99.90;;;;;;4971375;28;20232;-66
2021/06/19 09:34:17;;;;;;;2.90;1.07;;;26.60;99.90;;;;;;4971196;28;20216;-66
2021/06/19 09:36:46;;;;;;;3.77;0.87;;;26.70;99.90;;;;;;4971220;28;20219;-66
2021/06/19 09:39:15;;;;;;;1.73;0.80;;;26.80;99.90;;;;;;4971756;28;20307;-67
2021/06/19 09:41:45;;;;;;;2.30;1.00;;;26.80;99.90;;;;;;4971285;28;20216;-67
2021/06/19 09:44:12;;;;;;;1.10;0.83;;;26.90;99.90;;;;;;4971334;28;20208;-65
2021/06/19 09:46:40;;;;;;;2.37;1.00;;;27.00;99.90;;;;;;4971020;28;20208;-67
2021/06/19 09:49:15;;;;;;;1.47;0.90;;;27.00;99.90;;;;;;4970807;28;20229;-66
2021/06/19 09:51:47;;;;;;;2.07;0.80;;;27.00;99.90;;;;;;4971104;28;20238;-67
2021/06/19 09:54:14;;;;;;;1.60;0.80;;;27.10;99.90;;;;;;4971034;28;20208;-67
2021/06/19 09:56:51;;;;;;;3.43;1.50;;;27.10;99.90;;;;;;4970983;28;20212;-66
2021/06/19 09:59:28;;;;;;;2.13;1.33;;;27.30;99.90;;;;;;4971217;28;20204;-66
2021/06/19 10:01:56;;;;;;;0.80;0.60;;;27.20;99.90;;;;;;4971093;28;20681;-66
2021/06/19 10:04:25;;;;;;;0.67;0.50;;;27.40;99.90;;;;;;4971146;28;20613;-66
2021/06/19 10:06:53;;;;;;;1.43;0.80;;;27.10;99.90;;;;;;4970801;28;20217;-66
2021/06/19 10:09:21;;;;;;;0.57;0.50;;;27.20;99.90;;;;;;4971116;28;20209;-67
2021/06/19 10:11:51;;;;;;;2.50;0.90;;;27.40;99.90;;;;;;4970625;28;20236;-67
2021/06/19 10:14:19;;;;;;;2.43;0.83;;;27.50;99.90;;;;;;4970876;28;20208;-66
2021/06/19 10:16:50;;;;;;;1.33;0.73;;;27.20;99.90;;;;;;4970627;28;20219;-67
2021/06/19 10:19:22;;;;;;;1.97;0.70;;;27.30;99.90;;;;;;4971034;28;20636;-66
2021/06/19 10:21:51;;;;;;;1.10;0.80;;;27.40;99.90;;;;;;4970706;28;20212;-66
2021/06/19 10:24:19;;;;;;;1.47;0.80;;;27.60;99.90;;;;;;4970492;28;20713;-66
2021/06/19 10:26:46;;;;;;;1.03;0.77;;;27.20;99.90;;;;;;4970539;28;20585;-66
2021/06/19 10:29:15;;;;;;;1.60;0.90;;;27.30;99.90;;;;;;4970426;28;20221;-66
2021/06/19 10:31:44;;;;;;;1.07;0.80;;;27.30;99.90;;;;;;4970407;28;20717;-66
2021/06/19 10:34:22;;;;;;;1.53;0.80;;;27.40;99.90;;;;;;4970160;28;20209;-65
2021/06/19 10:36:48;;;;;;;2.23;0.90;;;27.30;99.90;;;;;;4970107;28;20239;-66
2021/06/19 10:39:39;;;;;;;1.37;0.70;;;27.60;99.90;;;;;;4970530;28;20220;-67
2021/06/19 10:42:23;;;;;;;2.13;1.03;;;27.80;99.90;;;;;;4970473;28;20216;-65
2021/06/19 10:44:54;;;;;;;1.23;0.73;;;27.90;99.90;;;;;;4969723;28;20613;-63
2021/06/19 10:47:22;;;;;;;3.80;0.90;;;28.10;99.90;;;;;;4970457;28;20228;-61
2021/06/19 10:49:50;;;;;;;2.90;0.70;;;28.10;99.90;;;;;;4970109;28;20231;-62
2021/06/19 10:52:25;;;;;;;2.87;0.87;;;28.10;99.90;;;;;;4969468;28;20212;-62
2021/06/19 10:55:20;;;;;;;1.23;0.70;;;28.20;99.90;;;;;;4970641;28;20731;-63
2021/06/19 10:57:48;;;;;;;1.43;0.83;;;28.40;99.90;;;;;;4968572;28;20307;-61
2021/06/19 11:00:32;;;;;;;2.10;0.90;;;28.50;99.90;;;;;;4970780;28;20308;-62
2021/06/19 11:03:00;;;;;;;1.33;0.87;;;28.60;99.90;;;;;;4971327;28;20219;-63
2021/06/19 11:06:09;;;;;;;1.77;0.87;;;28.80;99.90;;;;;;4970925;28;20211;-64
2021/06/19 11:09:03;;;;;;;3.07;0.70;;;28.70;99.90;;;;;;4947595;28;20228;-63
2021/06/19 11:11:54;;;;;;;4.43;2.57;;;28.60;99.90;;;;;;4971909;28;20228;-63
2021/06/19 11:14:56;;;;;;;2.63;0.87;;;28.70;99.90;;;;;;4971591;28;20204;-63
2021/06/19 11:17:47;;;;;;;2.23;0.90;;;28.90;99.90;;;;;;4971394;28;20244;-63
2021/06/19 11:20:33;;;;;;;2.00;1.00;;;28.90;99.90;;;;;;4970412;28;20208;-64
2021/06/19 11:23:07;;;;;;;1.60;0.90;;;28.90;99.90;;;;;;4970600;28;20213;-63
2021/06/19 11:28:34;;;;;;;2.00;1.33;;;29.10;99.90;;;;;;4971732;28;20307;-62
2021/06/19 11:31:03;;;;;;;1.63;0.70;;;29.20;99.90;;;;;;4969850;28;20295;-63
2021/06/19 11:33:49;;;;;;;2.37;0.70;;;29.30;99.90;;;;;;4970471;28;20211;-62
2021/06/19 11:36:38;;;;;;;8.23;0.90;;;29.40;99.90;;;;;;4970346;28;20674;-62
2021/06/19 11:39:16;;;;;;;1.50;1.00;;;29.20;99.90;;;;;;4965517;28;20591;-62
2021/06/19 11:41:56;;;;;;;2.37;1.00;;;29.30;99.90;;;;;;4969925;28;20308;-64
2021/06/19 11:44:34;;;;;;;1.83;1.10;;;29.10;99.90;;;;;;4969924;28;20212;-64
2021/06/19 11:47:07;;;;;;;1.67;0.90;;;29.10;99.90;;;;;;4969895;28;20215;-64
2021/06/19 11:49:43;;;;;;;2.83;0.90;;;29.20;99.90;;;;;;4969715;28;20208;-64
2021/06/19 11:52:12;;;;;;;1.47;0.83;;;29.40;99.90;;;;;;4969847;28;20315;-63
2021/06/19 11:54:44;;;;;;;2.70;0.77;;;29.40;99.90;;;;;;4969757;28;20213;-64
2021/06/19 11:57:21;;;;;;;4.37;0.80;;;29.50;99.90;;;;;;4969733;28;20271;-63
2021/06/19 12:00:02;;;;;;;1.65;0.93;;;29.60;99.90;;;;;;4969921;28;20208;-64
2021/06/19 12:02:28;;;;;;;2.07;0.80;;;29.60;99.90;;;;;;4969891;28;20243;-63
2021/06/19 12:04:56;;;;;;;1.93;0.90;;;29.60;99.90;;;;;;4969811;28;20607;-66
2021/06/19 12:07:25;;;;;;;2.47;0.80;;;29.70;99.90;;;;;;4969698;28;20236;-63
2021/06/19 12:09:52;;;;;;;2.57;0.87;;;29.80;99.90;;;;;;4969849;28;20593;-64
2021/06/19 12:12:19;;;;;;;1.55;0.93;;;29.80;99.90;;;;;;4969198;28;20651;-64
2021/06/19 12:14:46;;;;;;;4.50;1.33;;;29.90;99.90;;;;;;4969591;28;20215;-64
2021/06/19 12:17:14;;;;;;;4.43;1.20;;;29.90;99.90;;;;;;4969750;28;20228;-64
2021/06/19 12:19:43;;;;;;;1.90;1.20;;;29.70;99.90;;;;;;4969583;28;20216;-64
2021/06/19 12:22:12;;;;;;;3.43;0.93;;;29.60;99.90;;;;;;4969414;28;20228;-65
2021/06/19 12:24:40;;;;;;;6.32;1.30;;;29.70;99.90;;;;;;4969103;28;20209;-64
2021/06/19 12:27:11;;;;;;;3.42;1.05;;;29.90;99.90;;;;;;4969434;28;20236;-64
2021/06/19 12:29:43;;;;;;;2.75;1.33;;;29.90;99.90;;;;;;4969228;28;20243;-64
2021/06/19 12:32:28;;;;;;;5.75;1.58;;;30.00;99.90;;;;;;4969175;28;20240;-64
2021/06/19 12:34:58;;;;;;;1.47;1.00;;;29.90;99.90;;;;;;4969168;28;20219;-64
2021/06/19 12:37:30;;;;;;;2.70;1.08;;;29.90;99.90;;;;;;4969119;28;20790;-64
2021/06/19 12:39:58;;;;;;;2.55;1.00;;;29.80;99.90;;;;;;4969305;28;20291;-63
2021/06/19 12:42:45;;;;;;;2.17;1.50;;;30.10;99.90;;;;;;4969595;28;20212;-64
2021/06/19 12:45:15;;;;;;;2.08;0.80;;;30.20;99.90;;;;;;4972316;28;20236;-65
2021/06/19 12:47:44;;;;;;;1.77;1.10;;;30.20;99.90;;;;;;4972334;28;20320;-64
2021/06/19 12:50:13;;;;;;;1.75;1.10;;;30.30;99.90;;;;;;4972577;28;20242;-64
2021/06/19 12:52:58;;;;;;;1.42;1.10;;;30.30;99.90;;;;;;4972552;28;20200;-65
2021/06/19 12:55:25;;;;;;;1.48;0.82;;;30.00;99.90;;;;;;4972346;28;20213;-64
2021/06/19 12:58:10;;;;;;;5.72;1.27;;;29.80;99.90;;;;;;4972341;28;20236;-65